createdAt,value
2023-01-11T00:00:16.689Z,98672.00
2023-01-11T00:03:37.823Z,98669.56
2023-01-11T00:06:58.296Z,98670.47
2023-01-11T00:10:19.940Z,98662.91
2023-01-11T00:13:43.086Z,98659.72
2023-01-11T00:17:03.504Z,98652.25
2023-01-11T00:20:23.841Z,98656.63
2023-01-11T00:23:44.408Z,98654.84
2023-01-11T00:27:04.740Z,98652.13
2023-01-11T00:30:28.606Z,98636.06
2023-01-11T00:33:49.358Z,98662.63
2023-01-11T00:37:10.889Z,98658.28
2023-01-11T00:40:31.216Z,98658.38
2023-01-11T00:44:07.038Z,98667.09
2023-01-11T00:47:45.869Z,98670.28
2023-01-11T00:51:06.330Z,98663.50
2023-01-11T00:54:27.211Z,98668.84
2023-01-11T00:57:47.818Z,98677.13
2023-01-11T01:01:10.601Z,98677.63
2023-01-11T01:04:34.758Z,98682.63
2023-01-11T01:07:55.194Z,98677.31
2023-01-11T01:11:15.549Z,98674.53
2023-01-11T01:14:34.749Z,98671.63
2023-01-11T01:17:58.055Z,98667.84
2023-01-11T01:21:21.160Z,98665.09
2023-01-11T01:24:41.647Z,98660.72
2023-01-11T01:28:02.164Z,98676.38
2023-01-11T01:31:22.780Z,98672.13
2023-01-11T01:34:43.245Z,98672.97
2023-01-11T01:38:06.339Z,98676.25
2023-01-11T01:41:26.754Z,98676.25
2023-01-11T01:45:20.383Z,98667.84
2023-01-11T01:48:46.029Z,98668.00
2023-01-11T01:52:07.424Z,98671.38
2023-01-11T01:55:39.036Z,98660.22
2023-01-11T01:59:07.931Z,98655.84
2023-01-11T02:02:29.920Z,98650.53
2023-01-11T02:05:54.700Z,98653.16
2023-01-11T02:09:29.834Z,98650.75
2023-01-11T02:13:01.470Z,98653.72
2023-01-11T02:16:24.600Z,98646.75
2023-01-11T02:19:55.373Z,98645.06
2023-01-11T02:23:50.158Z,98646.63
2023-01-11T02:27:32.095Z,98637.53
2023-01-11T02:30:56.988Z,98640.75
2023-01-11T02:34:30.448Z,98639.03
2023-01-11T02:37:51.135Z,98634.88
2023-01-11T02:41:11.853Z,98640.09
2023-01-11T02:44:43.772Z,98633.16
2023-01-11T02:48:02.133Z,98637.72
2023-01-11T02:51:15.962Z,98636.94
2023-01-11T02:54:27.468Z,98635.06
2023-01-11T02:57:39.398Z,98635.66
2023-01-11T03:00:47.676Z,98648.47
2023-01-11T03:03:57.842Z,98643.00
2023-01-11T03:07:30.597Z,98648.06
2023-01-11T03:11:00.045Z,98652.09
2023-01-11T03:14:20.798Z,98648.41
2023-01-11T03:17:48.868Z,98648.22
2023-01-11T03:21:20.021Z,98642.13
2023-01-11T03:24:41.791Z,98648.28
2023-01-11T03:28:05.163Z,98647.63
2023-01-11T03:31:24.205Z,98646.97
2023-01-11T03:34:43.433Z,98647.66
2023-01-11T03:38:03.560Z,98644.09
2023-01-11T03:41:19.561Z,98638.88
2023-01-11T03:44:29.339Z,98638.88
2023-01-11T03:47:39.047Z,98640.56
2023-01-11T03:50:46.916Z,98637.03
2023-01-11T03:54:02.491Z,98631.81
2023-01-11T03:57:16.532Z,98626.75
2023-01-11T04:00:23.734Z,98637.31
2023-01-11T04:03:29.393Z,98629.34
2023-01-11T04:06:40.723Z,98633.44
2023-01-11T04:09:49.514Z,98627.22
2023-01-11T04:12:55.713Z,98624.41
2023-01-11T04:16:01.079Z,98617.34
2023-01-11T04:19:07.322Z,98621.59
2023-01-11T04:22:12.716Z,98619.66
2023-01-11T04:25:21.851Z,98629.09
2023-01-11T04:28:27.234Z,98629.00
2023-01-11T04:31:33.562Z,98626.25
2023-01-11T04:34:38.933Z,98623.75
2023-01-11T04:37:45.257Z,98629.09
2023-01-11T04:41:14.864Z,98616.06
2023-01-11T04:44:21.152Z,98615.16
2023-01-11T04:47:28.297Z,98618.53
2023-01-11T04:50:34.670Z,98611.38
2023-01-11T04:53:40.521Z,98602.50
2023-01-11T04:56:49.504Z,98599.91
2023-01-11T04:59:54.893Z,98597.16
2023-01-11T05:03:02.630Z,98592.72
2023-01-11T05:06:08.943Z,98592.72
2023-01-11T05:09:18.832Z,98598.97
2023-01-11T05:12:27.334Z,98589.38
2023-01-11T05:15:33.518Z,98582.47
2023-01-11T05:18:39.384Z,98581.75
2023-01-11T05:21:45.854Z,98579.22
2023-01-11T05:24:51.259Z,98576.66
2023-01-11T05:28:00.253Z,98584.47
2023-01-11T05:31:06.569Z,98568.41
2023-01-11T05:34:16.656Z,98571.81
2023-01-11T05:37:21.979Z,98566.72
2023-01-11T05:40:28.204Z,98573.06
2023-01-11T05:43:59.445Z,98574.03
2023-01-11T05:47:05.760Z,98581.19
2023-01-11T05:50:13.406Z,98584.00
2023-01-11T05:53:19.612Z,98578.72
2023-01-11T05:56:25.027Z,98575.38
2023-01-11T05:59:34.032Z,98578.06
2023-01-11T06:02:39.638Z,98566.06
2023-01-11T06:05:46.232Z,98565.22
2023-01-11T06:08:52.375Z,98547.31
2023-01-11T06:11:58.647Z,98562.63
2023-01-11T06:15:07.835Z,98567.63
2023-01-11T06:18:14.162Z,98568.53
2023-01-11T06:21:21.359Z,98566.97
2023-01-11T06:24:27.820Z,98561.09
2023-01-11T06:27:33.191Z,98554.28
2023-01-11T06:30:43.156Z,98552.84
2023-01-11T06:33:49.687Z,98558.44
2023-01-11T06:36:55.894Z,98555.28
2023-01-11T06:40:01.293Z,98570.38
2023-01-11T06:43:08.584Z,98566.38
2023-01-11T06:46:19.786Z,98568.28
2023-01-11T06:49:26.064Z,98564.16
2023-01-11T06:52:31.609Z,98567.06
2023-01-11T06:55:37.845Z,98559.47
2023-01-11T06:58:45.577Z,98568.16
2023-01-11T07:01:56.359Z,98561.31
2023-01-11T07:05:01.816Z,98570.06
2023-01-11T07:08:26.800Z,98571.75
2023-01-11T07:11:50.822Z,98570.00
2023-01-11T07:15:15.260Z,98568.16
2023-01-11T07:18:41.912Z,98566.31
2023-01-11T07:22:06.698Z,98565.34
2023-01-11T07:25:32.017Z,98558.56
2023-01-11T07:28:38.605Z,98537.63
2023-01-11T07:31:44.176Z,98539.50
2023-01-11T07:34:53.166Z,98541.56
2023-01-11T07:37:58.607Z,98531.50
2023-01-11T07:41:25.396Z,98533.19
2023-01-11T07:44:30.653Z,98531.38
2023-01-11T07:47:37.514Z,98520.97
2023-01-11T07:50:46.591Z,98524.94
2023-01-11T07:53:52.851Z,98527.28
2023-01-11T07:56:58.291Z,98528.91
2023-01-11T08:00:04.706Z,98534.84
2023-01-11T08:03:17.607Z,98537.22
2023-01-11T08:06:26.759Z,98528.63
2023-01-11T08:09:32.179Z,98530.28
2023-01-11T08:12:54.309Z,98524.97
2023-01-11T08:16:01.321Z,98522.16
2023-01-11T08:19:08.192Z,98514.19
2023-01-11T08:22:17.892Z,98510.66
2023-01-11T08:25:25.761Z,98503.75
2023-01-11T08:28:32.300Z,98504.34
2023-01-11T08:31:38.589Z,98512.72
2023-01-11T08:34:44.224Z,98518.38
2023-01-11T08:37:53.415Z,98522.47
2023-01-11T08:40:58.789Z,98519.69
2023-01-11T08:44:05.138Z,98527.28
2023-01-11T08:47:10.555Z,98529.66
2023-01-11T08:50:17.907Z,98531.88
2023-01-11T08:53:26.688Z,98540.19
2023-01-11T08:56:32.967Z,98541.59
2023-01-11T08:59:38.382Z,98536.09
2023-01-11T09:02:45.589Z,98537.81
2023-01-11T09:05:51.596Z,98533.56
2023-01-11T09:09:00.938Z,98528.47
2023-01-11T09:12:06.670Z,98530.88
2023-01-11T09:15:14.325Z,98521.28
2023-01-11T09:18:19.695Z,98527.25
2023-01-11T09:21:26.723Z,98527.97
2023-01-11T09:24:35.195Z,98526.13
2023-01-11T09:27:41.543Z,98521.03
2023-01-11T09:30:51.411Z,98533.19
2023-01-11T09:33:57.899Z,98523.38
2023-01-11T09:37:04.781Z,98514.41
2023-01-11T09:40:23.815Z,98509.06
2023-01-11T09:43:33.509Z,98513.28
2023-01-11T09:46:45.287Z,98508.06
2023-01-11T09:49:59.282Z,98497.50
2023-01-11T09:53:10.872Z,98494.25
2023-01-11T09:56:25.816Z,98500.53
2023-01-11T09:59:45.008Z,98499.03
2023-01-11T10:04:03.627Z,98490.59
2023-01-11T10:18:30.103Z,98470.19
2023-01-11T10:22:48.496Z,98454.81
2023-01-11T10:26:05.061Z,98455.66
2023-01-11T10:29:40.444Z,98443.78
2023-01-11T10:33:06.667Z,98452.13
2023-01-11T10:36:39.882Z,98449.59
2023-01-11T10:40:29.375Z,98449.31
2023-01-11T10:43:44.698Z,98442.97
2023-01-11T10:46:59.855Z,98436.75
2023-01-11T10:50:25.808Z,98432.47
2023-01-11T10:53:42.551Z,98436.75
2023-01-11T10:57:23.157Z,98430.84
2023-01-11T11:00:42.374Z,98432.66
2023-01-11T11:04:28.156Z,98427.59
2023-01-11T11:07:49.985Z,98424.06
2023-01-11T11:11:08.767Z,98422.09
2023-01-11T11:14:27.136Z,98421.94
2023-01-11T11:17:38.643Z,98414.75
2023-01-11T11:20:47.118Z,98403.47
2023-01-11T11:24:06.019Z,98394.00
2023-01-11T11:27:28.621Z,98397.41
2023-01-11T11:30:41.649Z,98391.47
2023-01-11T11:33:50.051Z,98380.81
2023-01-11T11:37:03.897Z,98368.63
2023-01-11T11:40:30.568Z,98372.72
2023-01-11T11:43:38.786Z,98363.13
2023-01-11T11:46:44.582Z,98370.00
2023-01-11T11:50:01.271Z,98371.50
2023-01-11T11:53:10.410Z,98365.22
2023-01-11T11:56:27.817Z,98365.91
2023-01-11T11:59:35.196Z,98358.16
2023-01-11T12:02:55.194Z,98359.84
2023-01-11T12:06:05.037Z,98351.81
2023-01-11T12:09:34.931Z,98348.22
2023-01-11T12:12:55.974Z,98336.97
2023-01-11T12:16:06.176Z,98345.31
2023-01-11T12:19:32.600Z,98334.44
2023-01-11T12:22:38.923Z,98325.66
2023-01-11T12:26:14.036Z,98327.38
2023-01-11T12:29:42.645Z,98322.16
2023-01-11T12:33:43.151Z,98325.53
2023-01-11T12:37:03.905Z,98319.44
2023-01-11T12:40:27.007Z,98313.06
2023-01-11T12:44:07.191Z,98300.81
2023-01-11T12:47:58.603Z,98288.38
2023-01-11T12:51:26.877Z,98289.66
2023-01-11T12:55:05.966Z,98278.81
2023-01-11T12:58:27.916Z,98279.50
2023-01-11T13:01:55.121Z,98266.34
2023-01-11T13:05:19.188Z,98260.13
2023-01-11T13:08:46.333Z,98260.91
2023-01-11T13:12:07.343Z,98255.75
2023-01-11T13:15:42.260Z,98248.59
2023-01-11T13:19:03.363Z,98245.13
2023-01-11T13:22:21.360Z,98248.34
2023-01-11T13:25:34.383Z,98246.75
2023-01-11T13:28:47.471Z,98248.69
2023-01-11T13:31:56.301Z,98241.75
2023-01-11T13:35:18.337Z,98238.22
2023-01-11T13:38:41.553Z,98234.69
2023-01-11T13:41:56.545Z,98237.44
2023-01-11T13:45:19.525Z,98228.09
2023-01-11T13:48:35.438Z,98235.16
2023-01-11T13:52:00.742Z,98239.44
2023-01-11T13:55:24.879Z,98242.22
2023-01-11T13:58:40.491Z,98228.38
2023-01-11T14:01:59.720Z,98224.72
2023-01-11T14:05:18.520Z,98231.72
2023-01-11T14:09:12.585Z,98230.50
2023-01-11T14:12:42.143Z,98228.88
2023-01-11T14:16:02.344Z,98229.44
2023-01-11T14:19:25.376Z,98226.94
2023-01-11T14:22:44.557Z,98233.41
2023-01-11T14:26:37.028Z,98243.59
2023-01-11T14:30:18.031Z,98241.00
2023-01-11T14:34:14.339Z,98233.25
2023-01-11T14:38:08.735Z,98231.47
2023-01-11T14:42:12.089Z,98228.97
2023-01-11T14:45:40.059Z,98227.88
2023-01-11T14:49:00.490Z,98232.69
2023-01-11T14:52:15.113Z,98237.34
2023-01-11T14:55:29.202Z,98227.06
2023-01-11T14:58:37.377Z,98220.31
2023-01-11T15:02:28.511Z,98218.78
2023-01-11T15:05:42.058Z,98216.34
2023-01-11T15:08:53.587Z,98208.75
2023-01-11T15:12:14.778Z,98202.81
2023-01-11T15:15:47.357Z,98199.44
2023-01-11T15:18:50.267Z,98204.13
2023-01-11T15:21:59.719Z,98195.94
2023-01-11T15:25:09.745Z,98192.97
2023-01-11T15:28:41.707Z,98184.66
2023-01-11T15:32:17.141Z,98182.41
2023-01-11T15:35:36.994Z,98180.03
2023-01-11T15:38:54.342Z,98179.13
2023-01-11T15:42:37.552Z,98169.81
2023-01-11T15:46:43.521Z,98168.47
2023-01-11T15:50:57.862Z,98174.75
2023-01-11T15:54:53.256Z,98173.16
2023-01-11T15:58:36.713Z,98166.28
2023-01-11T16:02:17.129Z,98169.66
2023-01-11T16:05:30.142Z,98164.44
2023-01-11T16:08:53.529Z,98163.59
2023-01-11T16:12:30.514Z,98168.03
2023-01-11T16:15:57.013Z,98161.00
2023-01-11T16:19:17.856Z,98158.47
2023-01-11T16:22:28.905Z,98150.78
2023-01-11T16:25:46.603Z,98149.19
2023-01-11T16:28:57.835Z,98156.34
2023-01-11T16:32:07.932Z,98159.84
2023-01-11T16:35:22.499Z,98160.69
2023-01-11T16:38:30.984Z,98157.19
2023-01-11T16:41:51.295Z,98163.34
2023-01-11T16:45:04.813Z,98165.28
2023-01-11T16:48:19.095Z,98161.09
2023-01-11T16:51:25.319Z,98157.72
2023-01-11T16:54:36.144Z,98161.25
2023-01-11T16:57:54.403Z,98164.03
2023-01-11T17:01:03.373Z,98155.41
2023-01-11T17:04:28.862Z,98151.72
2023-01-11T17:07:34.236Z,98144.63
2023-01-11T17:10:40.843Z,98148.69
2023-01-11T17:14:34.706Z,98157.97
2023-01-11T17:17:42.299Z,98158.59
2023-01-11T17:20:47.908Z,98158.28
2023-01-11T17:24:05.730Z,98155.41
2023-01-11T17:27:24.092Z,98169.09
2023-01-11T17:30:35.524Z,98169.09
2023-01-11T17:33:41.212Z,98169.84
2023-01-11T17:36:49.536Z,98169.59
2023-01-11T17:39:56.704Z,98164.09
2023-01-11T17:43:24.962Z,98165.63
2023-01-11T17:46:33.506Z,98159.28
2023-01-11T17:49:42.243Z,98158.03
2023-01-11T17:52:54.678Z,98155.91
2023-01-11T17:56:03.894Z,98108.13
2023-01-11T17:59:23.932Z,98149.38
2023-01-11T18:02:33.320Z,98157.16
2023-01-11T18:05:39.159Z,98148.34
2023-01-11T18:08:52.217Z,98143.16
2023-01-11T18:12:12.805Z,98129.66
2023-01-11T18:15:33.356Z,98135.84
2023-01-11T18:18:48.843Z,98136.69
2023-01-11T18:21:57.899Z,98139.44
2023-01-11T18:25:17.819Z,98140.53
2023-01-11T18:28:38.648Z,98143.28
2023-01-11T18:31:44.950Z,98136.41
2023-01-11T18:34:57.512Z,98140.94
2023-01-11T18:38:02.956Z,98138.03
2023-01-11T18:41:30.252Z,98138.44
2023-01-11T18:44:35.700Z,98145.34
2023-01-11T18:47:42.980Z,98140.00
2023-01-11T18:50:54.708Z,98128.72
2023-01-11T18:54:00.919Z,98145.50
2023-01-11T18:57:06.816Z,98147.81
2023-01-11T19:00:18.858Z,98148.31
2023-01-11T19:03:24.295Z,98145.69
2023-01-11T19:06:33.419Z,98151.41
2023-01-11T19:09:38.822Z,98159.72
2023-01-11T19:12:45.414Z,98149.00
2023-01-11T19:15:51.673Z,98153.22
2023-01-11T19:18:58.204Z,98148.72
2023-01-11T19:22:07.080Z,98153.94
2023-01-11T19:25:15.414Z,98145.00
2023-01-11T19:28:20.897Z,98151.69
2023-01-11T19:31:27.139Z,98147.03
2023-01-11T19:34:32.544Z,98147.66
2023-01-11T19:37:41.850Z,98155.91
2023-01-11T19:40:50.335Z,98155.31
2023-01-11T19:43:57.017Z,98149.63
2023-01-11T19:47:12.522Z,98156.41
2023-01-11T19:50:20.202Z,98160.56
2023-01-11T19:53:28.402Z,98154.28
2023-01-11T19:56:34.815Z,98153.97
2023-01-11T19:59:40.218Z,98155.66
2023-01-11T20:02:46.876Z,98157.03
2023-01-11T20:05:52.430Z,98162.25
2023-01-11T20:09:01.988Z,98151.81
2023-01-11T20:12:07.804Z,98149.16
2023-01-11T20:15:15.208Z,98144.94
2023-01-11T20:18:21.099Z,98152.91
2023-01-11T20:21:34.291Z,98152.91
2023-01-11T20:24:42.918Z,98156.13
2023-01-11T20:27:49.436Z,98165.50
2023-01-11T20:30:56.374Z,98176.72
2023-01-11T20:34:05.310Z,98175.78
2023-01-11T20:37:11.050Z,98178.41
2023-01-11T20:40:21.044Z,98196.53
2023-01-11T20:43:27.496Z,98193.69
2023-01-11T20:46:34.985Z,98198.16
2023-01-11T20:49:41.408Z,98196.69
2023-01-11T20:52:48.204Z,98203.28
2023-01-11T20:55:57.124Z,98197.91
2023-01-11T20:59:04.501Z,98201.91
2023-01-11T21:02:11.001Z,98206.13
2023-01-11T21:05:17.835Z,98194.06
2023-01-11T21:08:23.769Z,98185.94
2023-01-11T21:11:34.613Z,98184.94
2023-01-11T21:14:40.334Z,98182.09
2023-01-11T21:17:47.160Z,98185.47
2023-01-11T21:20:53.763Z,98160.59
2023-01-11T21:24:02.581Z,98195.63
2023-01-11T21:27:11.563Z,98198.63
2023-01-11T21:30:18.751Z,98195.91
2023-01-11T21:33:24.275Z,98198.28
2023-01-11T21:36:34.495Z,98195.19
2023-01-11T21:39:39.883Z,98204.16
2023-01-11T21:42:49.010Z,98201.53
2023-01-11T21:45:58.546Z,98208.03
2023-01-11T21:49:04.888Z,98207.34
2023-01-11T21:52:11.923Z,98212.34
2023-01-11T21:55:18.298Z,98207.03
2023-01-11T21:58:26.425Z,98198.75
2023-01-11T22:01:32.929Z,98199.88
2023-01-11T22:04:39.202Z,98195.72
2023-01-11T22:07:45.455Z,98187.84
2023-01-11T22:11:00.322Z,98185.75
2023-01-11T22:14:09.737Z,98189.47
2023-01-11T22:17:15.409Z,98199.56
2023-01-11T22:20:21.837Z,98193.34
2023-01-11T22:23:27.836Z,98203.41
2023-01-11T22:26:38.872Z,98195.06
2023-01-11T22:29:48.222Z,98212.25
2023-01-11T22:32:54.663Z,98211.00
2023-01-11T22:36:00.159Z,98216.81
2023-01-11T22:39:06.995Z,98227.81
2023-01-11T22:42:12.879Z,98231.63
2023-01-11T22:45:22.060Z,98238.41
2023-01-11T22:48:27.867Z,98242.22
2023-01-11T22:51:34.141Z,98241.84
2023-01-11T22:54:39.529Z,98253.59
2023-01-11T22:57:45.856Z,98258.94
2023-01-11T23:00:53.987Z,98249.63
2023-01-11T23:04:02.354Z,98253.06
2023-01-11T23:07:07.999Z,98245.63
2023-01-11T23:10:15.131Z,98250.06
2023-01-11T23:13:36.558Z,98255.19
2023-01-11T23:16:47.834Z,98254.44
2023-01-11T23:19:53.256Z,98248.25
2023-01-11T23:22:59.536Z,98244.63
2023-01-11T23:26:04.901Z,98254.00
2023-01-11T23:29:11.607Z,98247.88
2023-01-11T23:32:20.065Z,98261.69
2023-01-11T23:35:26.461Z,98260.09
2023-01-11T23:38:35.698Z,98258.31
2023-01-11T23:41:58.065Z,98252.44
2023-01-11T23:45:03.406Z,98262.06
2023-01-11T23:48:09.701Z,98265.59
2023-01-11T23:51:15.054Z,98264.03
2023-01-11T23:54:21.375Z,98268.97
2023-01-11T23:57:29.334Z,98269.19
